Meteo Giornale » Osservazioni meteo Italia » Napoli-Capodichino

ore: 18:50 - Osservazioni Meteo Napoli-Capodichino
Lat. 40° 51' N Lon. 14° 18' E Alt. 88 metri s.l.m.

nuvoloso Europe/Rome

15 °C

Nuvoloso

Temp. 24 Ore

14 °C

20 °C

Nord

13 Km/h

Dew point 2 °C

Umidità 41 %

Visibilità  10 Km

Il sole sorge alle ore 07:22

Il sole tramonta alle ore 18:11

Data e Ora Cielo e Fenomeni T °C DP °C Um. % Pres. hPa Vis. km Vento km/h
Oggi h: 18:50 nuvoloso Nuvoloso 15 2 41 1012 10 N 13
Oggi h: 18:20 nuvoloso Nuvoloso 16 1 36 1011 10 N 13
Oggi h: 17:50 nuvoloso Nuvoloso 16 2 38 1011 10 N 18.5
Oggi h: 17:20 nuvoloso Nuvoloso 17 2 36 1011 10 N 20.3
Oggi h: 16:50 molto_nuvoloso Molto Nuvoloso 17 3 39 1011 10 N 16.7
Oggi h: 16:20 molto_nuvoloso Molto Nuvoloso 17 4 41 1010 10 N/NE 14.8
Oggi h: 15:50 molto_nuvoloso Molto Nuvoloso 17 2 36 1010 10 N 20.3
Oggi h: 15:20 molto_nuvoloso Molto Nuvoloso 17 2 36 1010 10 N 20.3
Oggi h: 14:50 nuvoloso Nuvoloso 18 4 39 1010 10 N/NE 18.5
Oggi h: 14:20 nuvoloso Nuvoloso 18 4 39 1010 10 N 13
Oggi h: 13:50 nuvoloso Nuvoloso 18 4 39 1009 10 N/NE 16.7
Oggi h: 13:20 nuvoloso Nuvoloso 18 7 48 1009 10 NE 16.7
Oggi h: 12:50 nuvoloso Nuvoloso 16 7 55 1009 10 E 13
Oggi h: 12:20 coperto_temporali Temporale 15 8 62 1009 10 E/NE 13
Oggi h: 11:50 poco_nuvoloso Poco Nuvoloso 17 8 55 1008 10 N 14.8
Oggi h: 11:20 poco_nuvoloso Poco Nuvoloso 17 11 67 1008 10 N 13
Oggi h: 10:50 poco_nuvoloso Poco Nuvoloso 17 11 67 1008 10 N/NO 14.8
Oggi h: 10:20 poco_nuvoloso Poco Nuvoloso 17 12 72 1008 10 O/NO 7.4
Oggi h: 09:50 poco_nuvoloso Poco Nuvoloso 15 12 82 1008 10 N 5.5
Oggi h: 09:20 poco_nuvoloso Poco Nuvoloso 16 12 77 1008 10 N 5.5
Oggi h: 08:50 poco_nuvoloso Poco Nuvoloso 16 12 77 1008 10 N 5.5
Oggi h: 08:20 poco_nuvoloso Poco Nuvoloso 14 11 82 1008 10 N 3.7
Oggi h: 07:50 nuvoloso Nuvoloso 14 11 82 1008 10 N 3.7
Oggi h: 06:50 coperto_pioggia Pioggia Debole Temporale nelle Vicinanze 14 11 82 1007 10 N 5.5
Oggi h: 06:20 nuvoloso_temporali Temporale con Pioggia Debole 14 11 82 1009 8 NO 13
Oggi h: 05:50 nuvoloso_temporali Temporale con Pioggia 16 10 67 1008 10 N 5.5
Oggi h: 05:20 nuvoloso Nuvoloso 16 10 67 1008 10 N 3.7
Oggi h: 04:50 nuvoloso Nuvoloso 15 10 72 1008 10 O 9.3
Oggi h: 04:20 nuvoloso Nuvoloso 17 10 63 1009 10 SO 9.3
Oggi h: 03:50 nuvoloso Nuvoloso 17 10 63 1009 10 O/SO 9.3
Oggi h: 03:20 nuvoloso Nuvoloso 16 10 67 1009 10 O/SO 13
Oggi h: 02:50 nuvoloso Nuvoloso 17 11 67 1010 10 S/SO 7.4
Oggi h: 02:20 nuvoloso Nuvoloso 17 10 63 1010 10 O/SO 13
Oggi h: 01:50 nuvoloso Nuvoloso 16 10 67 1011 10 O/SO 11.1
Oggi h: 01:20 nuvoloso Nuvoloso 17 11 67 1011 10 O/SO 16.7
Oggi h: 00:50 nuvoloso Nuvoloso 17 11 67 1012 10 O/SO 13
Oggi h: 00:20 nuvoloso Nuvoloso 17 10 63 1012 10 O/SO 14.8
Ieri h: 23:50 molto_nuvoloso Molto Nuvoloso 17 11 67 1012 10 O/SO 16.7
Ieri h: 23:20 molto_nuvoloso Molto Nuvoloso 17 11 67 1013 10 O/SO 16.7
Ieri h: 22:50 molto_nuvoloso Molto Nuvoloso 18 11 63 1013 10 SO 13
Ieri h: 22:20 nuvoloso Nuvoloso 18 11 63 1013 10 O 16.7
Ieri h: 21:50 nuvoloso Nuvoloso 19 11 59 1013 10 O/NO 11.1
Ieri h: 21:20 molto_nuvoloso Molto Nuvoloso 18 13 72 1013 10 SO 11.1
Ieri h: 20:50 nuvoloso Nuvoloso 18 14 77 1013 10 O/SO 9.3
Ieri h: 20:20 nuvoloso Nuvoloso 19 15 77 1013 10 O/SO 14.8
Ieri h: 19:50 poco_nuvoloso Poco Nuvoloso 20 17 82 1013 10 O/SO 14.8